sensor_id;sensor_type;location;lat;lon;timestamp;P1;durP1;ratioP1;P2;durP2;ratioP2
39094;SDS011;24840;47.508;19.376;2022-10-16T00:03:17;8.60;;;7.03;;
39094;SDS011;24840;47.508;19.376;2022-10-16T00:05:43;10.63;;;7.68;;
39094;SDS011;24840;47.508;19.376;2022-10-16T00:11:37;11.40;;;6.67;;
39094;SDS011;24840;47.508;19.376;2022-10-16T00:14:05;10.40;;;6.78;;
39094;SDS011;24840;47.508;19.376;2022-10-16T00:16:36;12.32;;;7.60;;
39094;SDS011;24840;47.508;19.376;2022-10-16T00:22:24;14.32;;;7.57;;
39094;SDS011;24840;47.508;19.376;2022-10-16T00:28:12;12.10;;;7.03;;
39094;SDS011;24840;47.508;19.376;2022-10-16T00:30:38;9.80;;;6.68;;
39094;SDS011;24840;47.508;19.376;2022-10-16T00:33:04;9.35;;;6.32;;
39094;SDS011;24840;47.508;19.376;2022-10-16T00:35:30;9.57;;;5.95;;
39094;SDS011;24840;47.508;19.376;2022-10-16T00:44:42;6.95;;;6.13;;
39094;SDS011;24840;47.508;19.376;2022-10-16T00:47:57;13.40;;;7.22;;
39094;SDS011;24840;47.508;19.376;2022-10-16T00:50:22;9.80;;;6.85;;
39094;SDS011;24840;47.508;19.376;2022-10-16T00:52:59;10.50;;;5.95;;
39094;SDS011;24840;47.508;19.376;2022-10-16T00:55:27;9.77;;;6.43;;
39094;SDS011;24840;47.508;19.376;2022-10-16T01:01:17;9.15;;;5.82;;
39094;SDS011;24840;47.508;19.376;2022-10-16T01:03:43;10.43;;;5.88;;
39094;SDS011;24840;47.508;19.376;2022-10-16T01:06:16;7.03;;;5.85;;
39094;SDS011;24840;47.508;19.376;2022-10-16T01:12:06;8.18;;;5.43;;
39094;SDS011;24840;47.508;19.376;2022-10-16T01:17:23;13.20;;;5.63;;
39094;SDS011;24840;47.508;19.376;2022-10-16T01:20:09;9.52;;;4.72;;
39094;SDS011;24840;47.508;19.376;2022-10-16T01:26:04;5.00;;;4.40;;
39094;SDS011;24840;47.508;19.376;2022-10-16T01:32:17;7.17;;;5.63;;
39094;SDS011;24840;47.508;19.376;2022-10-16T01:43:07;6.10;;;5.03;;
39094;SDS011;24840;47.508;19.376;2022-10-16T01:45:36;5.95;;;4.47;;
39094;SDS011;24840;47.508;19.376;2022-10-16T02:01:48;11.07;;;5.20;;
39094;SDS011;24840;47.508;19.376;2022-10-16T02:06:49;8.07;;;5.00;;
39094;SDS011;24840;47.508;19.376;2022-10-16T02:19:40;5.05;;;4.40;;
39094;SDS011;24840;47.508;19.376;2022-10-16T02:22:07;9.23;;;5.05;;
39094;SDS011;24840;47.508;19.376;2022-10-16T02:25:00;6.00;;;5.03;;
39094;SDS011;24840;47.508;19.376;2022-10-16T02:27:33;6.90;;;4.63;;
39094;SDS011;24840;47.508;19.376;2022-10-16T02:32:52;6.00;;;4.53;;
39094;SDS011;24840;47.508;19.376;2022-10-16T02:35:21;9.35;;;4.47;;
39094;SDS011;24840;47.508;19.376;2022-10-16T02:37:48;5.35;;;4.60;;
39094;SDS011;24840;47.508;19.376;2022-10-16T02:40:16;5.85;;;4.43;;
39094;SDS011;24840;47.508;19.376;2022-10-16T02:42:43;7.03;;;5.75;;
39094;SDS011;24840;47.508;19.376;2022-10-16T02:45:09;8.75;;;4.72;;
39094;SDS011;24840;47.508;19.376;2022-10-16T02:47:36;6.10;;;4.70;;
39094;SDS011;24840;47.508;19.376;2022-10-16T02:57:07;5.82;;;4.47;;
39094;SDS011;24840;47.508;19.376;2022-10-16T03:02:29;7.93;;;5.22;;
39094;SDS011;24840;47.508;19.376;2022-10-16T03:04:55;5.28;;;4.72;;
39094;SDS011;24840;47.508;19.376;2022-10-16T03:07:21;6.80;;;4.97;;
39094;SDS011;24840;47.508;19.376;2022-10-16T03:13:09;5.70;;;4.13;;
39094;SDS011;24840;47.508;19.376;2022-10-16T03:15:35;7.38;;;4.18;;
39094;SDS011;24840;47.508;19.376;2022-10-16T03:28:28;7.10;;;4.72;;
39094;SDS011;24840;47.508;19.376;2022-10-16T03:30:54;9.02;;;4.47;;
39094;SDS011;24840;47.508;19.376;2022-10-16T03:33:21;6.97;;;5.57;;
39094;SDS011;24840;47.508;19.376;2022-10-16T03:35:52;4.70;;;4.05;;
39094;SDS011;24840;47.508;19.376;2022-10-16T03:44:46;5.07;;;3.67;;
39094;SDS011;24840;47.508;19.376;2022-10-16T03:47:18;6.13;;;4.93;;
39094;SDS011;24840;47.508;19.376;2022-10-16T03:53:12;8.37;;;4.87;;
39094;SDS011;24840;47.508;19.376;2022-10-16T04:04:45;7.55;;;5.30;;
39094;SDS011;24840;47.508;19.376;2022-10-16T04:07:11;5.53;;;4.32;;
39094;SDS011;24840;47.508;19.376;2022-10-16T04:13:00;8.95;;;5.32;;
39094;SDS011;24840;47.508;19.376;2022-10-16T04:15:31;7.50;;;4.45;;
39094;SDS011;24840;47.508;19.376;2022-10-16T04:23:58;10.13;;;4.88;;
39094;SDS011;24840;47.508;19.376;2022-10-16T04:26:29;5.63;;;4.18;;
39094;SDS011;24840;47.508;19.376;2022-10-16T04:32:22;10.60;;;4.53;;
39094;SDS011;24840;47.508;19.376;2022-10-16T04:34:51;11.80;;;5.30;;
39094;SDS011;24840;47.508;19.376;2022-10-16T04:37:17;7.43;;;4.03;;
39094;SDS011;24840;47.508;19.376;2022-10-16T04:42:33;7.05;;;4.18;;
39094;SDS011;24840;47.508;19.376;2022-10-16T04:44:59;6.45;;;5.05;;
39094;SDS011;24840;47.508;19.376;2022-10-16T04:47:25;8.80;;;4.35;;
39094;SDS011;24840;47.508;19.376;2022-10-16T04:53:13;6.15;;;4.45;;
39094;SDS011;24840;47.508;19.376;2022-10-16T04:55:39;8.65;;;5.38;;
39094;SDS011;24840;47.508;19.376;2022-10-16T04:58:08;8.63;;;5.28;;
39094;SDS011;24840;47.508;19.376;2022-10-16T05:00:34;12.25;;;5.53;;
39094;SDS011;24840;47.508;19.376;2022-10-16T05:03:00;5.65;;;4.72;;
39094;SDS011;24840;47.508;19.376;2022-10-16T05:05:31;9.38;;;5.47;;
39094;SDS011;24840;47.508;19.376;2022-10-16T05:10:35;11.80;;;5.50;;
39094;SDS011;24840;47.508;19.376;2022-10-16T05:13:01;6.22;;;4.68;;
39094;SDS011;24840;47.508;19.376;2022-10-16T05:15:28;7.63;;;5.10;;
39094;SDS011;24840;47.508;19.376;2022-10-16T05:18:03;5.30;;;4.80;;
39094;SDS011;24840;47.508;19.376;2022-10-16T05:20:30;6.15;;;4.72;;
39094;SDS011;24840;47.508;19.376;2022-10-16T05:22:57;8.35;;;5.05;;
39094;SDS011;24840;47.508;19.376;2022-10-16T05:25:23;9.70;;;5.70;;
39094;SDS011;24840;47.508;19.376;2022-10-16T05:27:50;14.38;;;8.07;;
39094;SDS011;24840;47.508;19.376;2022-10-16T05:30:17;16.30;;;10.63;;
39094;SDS011;24840;47.508;19.376;2022-10-16T05:32:53;19.00;;;10.95;;
39094;SDS011;24840;47.508;19.376;2022-10-16T05:35:21;11.48;;;6.63;;
39094;SDS011;24840;47.508;19.376;2022-10-16T05:41:09;12.07;;;6.93;;
39094;SDS011;24840;47.508;19.376;2022-10-16T05:43:37;10.60;;;6.30;;
39094;SDS011;24840;47.508;19.376;2022-10-16T05:46:05;17.23;;;8.50;;
39094;SDS011;24840;47.508;19.376;2022-10-16T05:51:53;11.13;;;7.63;;
39094;SDS011;24840;47.508;19.376;2022-10-16T05:54:20;11.23;;;7.47;;
39094;SDS011;24840;47.508;19.376;2022-10-16T05:56:46;10.00;;;7.32;;
39094;SDS011;24840;47.508;19.376;2022-10-16T05:59:23;13.98;;;7.47;;
39094;SDS011;24840;47.508;19.376;2022-10-16T06:01:49;15.18;;;7.30;;
39094;SDS011;24840;47.508;19.376;2022-10-16T06:04:15;11.00;;;7.47;;
39094;SDS011;24840;47.508;19.376;2022-10-16T06:06:42;10.93;;;7.10;;
39094;SDS011;24840;47.508;19.376;2022-10-16T06:12:30;12.30;;;7.23;;
39094;SDS011;24840;47.508;19.376;2022-10-16T06:14:56;12.90;;;8.45;;
39094;SDS011;24840;47.508;19.376;2022-10-16T06:17:22;10.80;;;8.25;;
39094;SDS011;24840;47.508;19.376;2022-10-16T06:23:23;10.00;;;7.78;;
39094;SDS011;24840;47.508;19.376;2022-10-16T06:25:50;14.43;;;7.40;;
39094;SDS011;24840;47.508;19.376;2022-10-16T06:34:28;11.32;;;6.80;;
39094;SDS011;24840;47.508;19.376;2022-10-16T06:36:54;11.38;;;8.70;;
39094;SDS011;24840;47.508;19.376;2022-10-16T06:42:48;15.35;;;9.27;;
39094;SDS011;24840;47.508;19.376;2022-10-16T06:45:15;12.68;;;8.18;;
39094;SDS011;24840;47.508;19.376;2022-10-16T06:47:41;10.38;;;8.32;;
39094;SDS011;24840;47.508;19.376;2022-10-16T06:50:07;11.02;;;8.32;;
39094;SDS011;24840;47.508;19.376;2022-10-16T06:52:33;15.65;;;9.55;;
39094;SDS011;24840;47.508;19.376;2022-10-16T06:55:00;11.27;;;8.43;;
39094;SDS011;24840;47.508;19.376;2022-10-16T06:57:26;12.38;;;9.60;;
39094;SDS011;24840;47.508;19.376;2022-10-16T07:00:01;15.57;;;10.27;;
39094;SDS011;24840;47.508;19.376;2022-10-16T07:02:28;11.43;;;9.40;;
39094;SDS011;24840;47.508;19.376;2022-10-16T07:04:54;13.57;;;9.70;;
39094;SDS011;24840;47.508;19.376;2022-10-16T07:07:21;14.25;;;8.75;;
39094;SDS011;24840;47.508;19.376;2022-10-16T07:13:11;10.75;;;8.23;;
39094;SDS011;24840;47.508;19.376;2022-10-16T07:15:40;10.90;;;7.88;;
39094;SDS011;24840;47.508;19.376;2022-10-16T07:20:35;13.43;;;8.45;;
39094;SDS011;24840;47.508;19.376;2022-10-16T07:23:02;10.98;;;7.50;;
39094;SDS011;24840;47.508;19.376;2022-10-16T07:25:28;10.95;;;6.88;;
39094;SDS011;24840;47.508;19.376;2022-10-16T07:30:26;15.35;;;7.50;;
39094;SDS011;24840;47.508;19.376;2022-10-16T07:32:54;13.52;;;7.25;;
39094;SDS011;24840;47.508;19.376;2022-10-16T07:35:22;9.65;;;6.15;;
39094;SDS011;24840;47.508;19.376;2022-10-16T07:37:50;9.55;;;6.78;;
39094;SDS011;24840;47.508;19.376;2022-10-16T07:40:21;12.48;;;7.38;;
39094;SDS011;24840;47.508;19.376;2022-10-16T07:42:58;9.05;;;6.57;;
39094;SDS011;24840;47.508;19.376;2022-10-16T07:45:31;7.40;;;6.13;;
39094;SDS011;24840;47.508;19.376;2022-10-16T07:50:59;7.70;;;6.28;;
39094;SDS011;24840;47.508;19.376;2022-10-16T07:53:44;9.13;;;5.40;;
39094;SDS011;24840;47.508;19.376;2022-10-16T07:56:20;11.18;;;6.93;;
39094;SDS011;24840;47.508;19.376;2022-10-16T08:01:35;8.55;;;5.90;;
39094;SDS011;24840;47.508;19.376;2022-10-16T08:04:13;10.25;;;6.68;;
39094;SDS011;24840;47.508;19.376;2022-10-16T08:06:50;8.82;;;5.95;;
39094;SDS011;24840;47.508;19.376;2022-10-16T08:09:21;10.73;;;6.55;;
39094;SDS011;24840;47.508;19.376;2022-10-16T08:11:52;7.68;;;5.97;;
39094;SDS011;24840;47.508;19.376;2022-10-16T08:14:19;9.50;;;6.15;;
39094;SDS011;24840;47.508;19.376;2022-10-16T08:16:46;8.25;;;6.50;;
39094;SDS011;24840;47.508;19.376;2022-10-16T08:19:14;6.30;;;5.28;;
39094;SDS011;24840;47.508;19.376;2022-10-16T08:21:51;12.82;;;5.97;;
39094;SDS011;24840;47.508;19.376;2022-10-16T08:24:38;8.25;;;5.50;;
39094;SDS011;24840;47.508;19.376;2022-10-16T08:27:13;7.53;;;6.10;;
39094;SDS011;24840;47.508;19.376;2022-10-16T08:29:52;9.85;;;6.70;;
39094;SDS011;24840;47.508;19.376;2022-10-16T08:32:22;9.02;;;6.75;;
39094;SDS011;24840;47.508;19.376;2022-10-16T08:34:54;10.45;;;5.55;;
39094;SDS011;24840;47.508;19.376;2022-10-16T08:37:21;9.48;;;5.88;;
39094;SDS011;24840;47.508;19.376;2022-10-16T08:39:47;9.80;;;6.10;;
39094;SDS011;24840;47.508;19.376;2022-10-16T08:42:16;8.65;;;5.20;;
39094;SDS011;24840;47.508;19.376;2022-10-16T08:51:21;9.07;;;5.38;;
39094;SDS011;24840;47.508;19.376;2022-10-16T08:53:55;7.43;;;4.85;;
39094;SDS011;24840;47.508;19.376;2022-10-16T08:56:30;9.13;;;5.65;;
39094;SDS011;24840;47.508;19.376;2022-10-16T09:02:38;7.35;;;5.55;;
39094;SDS011;24840;47.508;19.376;2022-10-16T09:05:36;6.25;;;5.15;;
39094;SDS011;24840;47.508;19.376;2022-10-16T09:14:07;7.07;;;5.72;;
39094;SDS011;24840;47.508;19.376;2022-10-16T09:16:56;7.72;;;5.32;;
39094;SDS011;24840;47.508;19.376;2022-10-16T09:22:55;7.90;;;5.32;;
39094;SDS011;24840;47.508;19.376;2022-10-16T09:25:43;10.35;;;5.30;;
39094;SDS011;24840;47.508;19.376;2022-10-16T09:38:06;11.60;;;5.68;;
39094;SDS011;24840;47.508;19.376;2022-10-16T09:40:36;6.88;;;4.85;;
39094;SDS011;24840;47.508;19.376;2022-10-16T09:45:54;6.50;;;4.63;;
39094;SDS011;24840;47.508;19.376;2022-10-16T09:55:01;13.90;;;5.45;;
39094;SDS011;24840;47.508;19.376;2022-10-16T09:57:57;7.07;;;5.60;;
39094;SDS011;24840;47.508;19.376;2022-10-16T10:00:23;6.72;;;5.32;;
39094;SDS011;24840;47.508;19.376;2022-10-16T10:02:50;6.32;;;5.30;;
39094;SDS011;24840;47.508;19.376;2022-10-16T10:05:25;10.05;;;5.28;;
39094;SDS011;24840;47.508;19.376;2022-10-16T10:11:41;6.60;;;5.20;;
39094;SDS011;24840;47.508;19.376;2022-10-16T10:14:17;10.38;;;5.35;;
39094;SDS011;24840;47.508;19.376;2022-10-16T10:17:07;8.35;;;5.00;;
39094;SDS011;24840;47.508;19.376;2022-10-16T10:35:03;5.47;;;4.70;;
39094;SDS011;24840;47.508;19.376;2022-10-16T10:47:44;6.18;;;4.60;;
39094;SDS011;24840;47.508;19.376;2022-10-16T10:50:23;6.78;;;4.45;;
39094;SDS011;24840;47.508;19.376;2022-10-16T11:02:24;5.60;;;4.03;;
39094;SDS011;24840;47.508;19.376;2022-10-16T11:11:24;7.57;;;4.18;;
39094;SDS011;24840;47.508;19.376;2022-10-16T11:17:26;6.75;;;4.32;;
39094;SDS011;24840;47.508;19.376;2022-10-16T11:25:48;4.70;;;3.20;;
39094;SDS011;24840;47.508;19.376;2022-10-16T11:35:06;7.78;;;4.35;;
39094;SDS011;24840;47.508;19.376;2022-10-16T11:37:49;4.03;;;3.63;;
39094;SDS011;24840;47.508;19.376;2022-10-16T11:40:22;5.25;;;3.83;;
39094;SDS011;24840;47.508;19.376;2022-10-16T11:43:02;7.72;;;3.75;;
39094;SDS011;24840;47.508;19.376;2022-10-16T11:45:43;4.28;;;3.70;;
39094;SDS011;24840;47.508;19.376;2022-10-16T11:55:04;6.03;;;4.15;;
39094;SDS011;24840;47.508;19.376;2022-10-16T11:57:43;5.25;;;3.78;;
39094;SDS011;24840;47.508;19.376;2022-10-16T12:00:27;9.07;;;3.80;;
39094;SDS011;24840;47.508;19.376;2022-10-16T12:12:50;5.75;;;3.58;;
39094;SDS011;24840;47.508;19.376;2022-10-16T12:15:27;7.05;;;3.47;;
39094;SDS011;24840;47.508;19.376;2022-10-16T12:21:20;6.28;;;3.60;;
39094;SDS011;24840;47.508;19.376;2022-10-16T12:23:56;4.88;;;3.35;;
39094;SDS011;24840;47.508;19.376;2022-10-16T12:26:27;6.78;;;3.88;;
39094;SDS011;24840;47.508;19.376;2022-10-16T12:34:58;6.90;;;3.97;;
39094;SDS011;24840;47.508;19.376;2022-10-16T12:37:43;6.72;;;3.78;;
39094;SDS011;24840;47.508;19.376;2022-10-16T12:40:14;6.85;;;3.92;;
39094;SDS011;24840;47.508;19.376;2022-10-16T12:43:11;6.57;;;4.03;;
39094;SDS011;24840;47.508;19.376;2022-10-16T12:46:01;6.72;;;3.83;;
39094;SDS011;24840;47.508;19.376;2022-10-16T12:54:58;5.05;;;4.10;;
39094;SDS011;24840;47.508;19.376;2022-10-16T13:06:51;5.22;;;3.40;;
39094;SDS011;24840;47.508;19.376;2022-10-16T13:22:18;4.28;;;3.42;;
39094;SDS011;24840;47.508;19.376;2022-10-16T13:37:24;4.72;;;2.83;;
39094;SDS011;24840;47.508;19.376;2022-10-16T13:43:19;4.25;;;3.30;;
39094;SDS011;24840;47.508;19.376;2022-10-16T13:46:11;4.15;;;3.25;;
39094;SDS011;24840;47.508;19.376;2022-10-16T13:55:22;6.63;;;3.40;;
39094;SDS011;24840;47.508;19.376;2022-10-16T14:01:20;7.18;;;3.22;;
39094;SDS011;24840;47.508;19.376;2022-10-16T14:03:51;5.35;;;3.53;;
39094;SDS011;24840;47.508;19.376;2022-10-16T14:06:20;17.10;;;3.92;;
39094;SDS011;24840;47.508;19.376;2022-10-16T14:12:16;4.43;;;2.45;;
39094;SDS011;24840;47.508;19.376;2022-10-16T14:14:44;3.17;;;2.88;;
39094;SDS011;24840;47.508;19.376;2022-10-16T14:17:15;4.00;;;3.33;;
39094;SDS011;24840;47.508;19.376;2022-10-16T14:25:53;4.55;;;3.03;;
39094;SDS011;24840;47.508;19.376;2022-10-16T14:34:52;5.00;;;3.20;;
39094;SDS011;24840;47.508;19.376;2022-10-16T14:37:23;3.85;;;3.35;;
39094;SDS011;24840;47.508;19.376;2022-10-16T14:43:22;73.20;;;9.70;;
39094;SDS011;24840;47.508;19.376;2022-10-16T14:45:58;14.85;;;3.47;;
39094;SDS011;24840;47.508;19.376;2022-10-16T14:54:40;3.57;;;2.73;;
39094;SDS011;24840;47.508;19.376;2022-10-16T14:57:15;7.43;;;3.33;;
39094;SDS011;24840;47.508;19.376;2022-10-16T15:03:25;8.35;;;4.07;;
39094;SDS011;24840;47.508;19.376;2022-10-16T15:05:52;4.47;;;2.65;;
39094;SDS011;24840;47.508;19.376;2022-10-16T15:14:46;5.93;;;3.38;;
39094;SDS011;24840;47.508;19.376;2022-10-16T15:17:13;6.90;;;3.38;;
39094;SDS011;24840;47.508;19.376;2022-10-16T15:23:04;7.45;;;3.63;;
39094;SDS011;24840;47.508;19.376;2022-10-16T15:25:42;10.50;;;3.00;;
39094;SDS011;24840;47.508;19.376;2022-10-16T15:31:05;5.15;;;3.40;;
39094;SDS011;24840;47.508;19.376;2022-10-16T15:33:31;15.05;;;4.45;;
39094;SDS011;24840;47.508;19.376;2022-10-16T15:35:59;15.95;;;10.43;;
39094;SDS011;24840;47.508;19.376;2022-10-16T15:44:56;51.15;;;7.63;;
39094;SDS011;24840;47.508;19.376;2022-10-16T15:47:22;39.97;;;6.90;;
39094;SDS011;24840;47.508;19.376;2022-10-16T15:52:44;17.40;;;5.25;;
39094;SDS011;24840;47.508;19.376;2022-10-16T15:55:11;16.00;;;4.15;;
39094;SDS011;24840;47.508;19.376;2022-10-16T15:57:38;9.60;;;3.22;;
39094;SDS011;24840;47.508;19.376;2022-10-16T16:00:10;20.15;;;4.25;;
39094;SDS011;24840;47.508;19.376;2022-10-16T16:02:41;11.68;;;3.75;;
39094;SDS011;24840;47.508;19.376;2022-10-16T16:05:08;5.47;;;3.67;;
39094;SDS011;24840;47.508;19.376;2022-10-16T16:07:36;10.20;;;3.92;;
39094;SDS011;24840;47.508;19.376;2022-10-16T16:10:05;6.15;;;3.20;;
39094;SDS011;24840;47.508;19.376;2022-10-16T16:12:37;6.25;;;3.60;;
39094;SDS011;24840;47.508;19.376;2022-10-16T16:15:04;42.33;;;6.22;;
39094;SDS011;24840;47.508;19.376;2022-10-16T16:17:32;25.65;;;5.50;;
39094;SDS011;24840;47.508;19.376;2022-10-16T16:19:59;7.47;;;3.72;;
39094;SDS011;24840;47.508;19.376;2022-10-16T16:22:25;15.40;;;4.22;;
39094;SDS011;24840;47.508;19.376;2022-10-16T16:24:52;19.77;;;5.50;;
39094;SDS011;24840;47.508;19.376;2022-10-16T16:27:18;17.05;;;5.85;;
39094;SDS011;24840;47.508;19.376;2022-10-16T16:29:45;28.38;;;7.28;;
39094;SDS011;24840;47.508;19.376;2022-10-16T16:32:12;19.90;;;6.22;;
39094;SDS011;24840;47.508;19.376;2022-10-16T16:34:40;33.13;;;5.55;;
39094;SDS011;24840;47.508;19.376;2022-10-16T16:37:07;4.50;;;4.05;;
39094;SDS011;24840;47.508;19.376;2022-10-16T16:39:34;5.97;;;3.72;;
39094;SDS011;24840;47.508;19.376;2022-10-16T16:42:00;9.77;;;3.97;;
39094;SDS011;24840;47.508;19.376;2022-10-16T16:44:29;79.05;;;45.08;;
39094;SDS011;24840;47.508;19.376;2022-10-16T16:46:55;48.95;;;29.63;;
39094;SDS011;24840;47.508;19.376;2022-10-16T16:49:21;82.20;;;46.50;;
39094;SDS011;24840;47.508;19.376;2022-10-16T16:51:47;33.88;;;16.45;;
39094;SDS011;24840;47.508;19.376;2022-10-16T16:54:13;29.23;;;12.63;;
39094;SDS011;24840;47.508;19.376;2022-10-16T16:56:41;51.20;;;27.83;;
39094;SDS011;24840;47.508;19.376;2022-10-16T16:59:14;67.22;;;37.80;;
39094;SDS011;24840;47.508;19.376;2022-10-16T17:01:42;33.78;;;22.45;;
39094;SDS011;24840;47.508;19.376;2022-10-16T17:04:09;23.40;;;16.02;;
39094;SDS011;24840;47.508;19.376;2022-10-16T17:06:35;35.53;;;26.50;;
39094;SDS011;24840;47.508;19.376;2022-10-16T17:09:03;44.80;;;29.88;;
39094;SDS011;24840;47.508;19.376;2022-10-16T17:11:31;27.80;;;19.73;;
39094;SDS011;24840;47.508;19.376;2022-10-16T17:13:58;25.27;;;17.50;;
39094;SDS011;24840;47.508;19.376;2022-10-16T17:16:26;18.42;;;12.52;;
39094;SDS011;24840;47.508;19.376;2022-10-16T17:18:54;51.00;;;36.83;;
39094;SDS011;24840;47.508;19.376;2022-10-16T17:21:20;41.45;;;29.90;;
39094;SDS011;24840;47.508;19.376;2022-10-16T17:23:50;20.20;;;15.07;;
39094;SDS011;24840;47.508;19.376;2022-10-16T17:26:18;28.95;;;22.38;;
39094;SDS011;24840;47.508;19.376;2022-10-16T17:28:44;59.65;;;44.95;;
39094;SDS011;24840;47.508;19.376;2022-10-16T17:31:11;28.98;;;17.20;;
39094;SDS011;24840;47.508;19.376;2022-10-16T17:33:42;9.60;;;7.50;;
39094;SDS011;24840;47.508;19.376;2022-10-16T17:36:09;17.88;;;13.73;;
39094;SDS011;24840;47.508;19.376;2022-10-16T17:38:36;17.67;;;13.90;;
39094;SDS011;24840;47.508;19.376;2022-10-16T17:43:48;10.93;;;5.25;;
39094;SDS011;24840;47.508;19.376;2022-10-16T17:46:16;16.60;;;11.82;;
39094;SDS011;24840;47.508;19.376;2022-10-16T17:48:47;25.85;;;19.98;;
39094;SDS011;24840;47.508;19.376;2022-10-16T17:51:16;9.13;;;6.15;;
39094;SDS011;24840;47.508;19.376;2022-10-16T17:53:47;7.50;;;5.40;;
39094;SDS011;24840;47.508;19.376;2022-10-16T17:56:17;22.17;;;14.48;;
39094;SDS011;24840;47.508;19.376;2022-10-16T17:58:49;21.63;;;17.05;;
39094;SDS011;24840;47.508;19.376;2022-10-16T18:01:28;18.42;;;13.38;;
39094;SDS011;24840;47.508;19.376;2022-10-16T18:04:00;12.88;;;7.63;;
39094;SDS011;24840;47.508;19.376;2022-10-16T18:06:46;13.40;;;8.20;;
39094;SDS011;24840;47.508;19.376;2022-10-16T18:09:13;7.60;;;5.60;;
39094;SDS011;24840;47.508;19.376;2022-10-16T18:11:45;14.93;;;9.48;;
39094;SDS011;24840;47.508;19.376;2022-10-16T18:14:14;21.67;;;16.67;;
39094;SDS011;24840;47.508;19.376;2022-10-16T18:16:41;47.50;;;26.92;;
39094;SDS011;24840;47.508;19.376;2022-10-16T18:19:08;14.70;;;9.95;;
39094;SDS011;24840;47.508;19.376;2022-10-16T18:21:36;15.82;;;11.23;;
39094;SDS011;24840;47.508;19.376;2022-10-16T18:24:01;15.10;;;12.35;;
39094;SDS011;24840;47.508;19.376;2022-10-16T18:26:27;12.15;;;8.38;;
39094;SDS011;24840;47.508;19.376;2022-10-16T18:28:54;9.63;;;6.80;;
39094;SDS011;24840;47.508;19.376;2022-10-16T18:31:22;31.15;;;24.20;;
39094;SDS011;24840;47.508;19.376;2022-10-16T18:33:50;26.25;;;18.85;;
39094;SDS011;24840;47.508;19.376;2022-10-16T18:36:17;11.00;;;9.85;;
39094;SDS011;24840;47.508;19.376;2022-10-16T18:38:48;19.23;;;10.07;;
39094;SDS011;24840;47.508;19.376;2022-10-16T18:41:15;12.30;;;9.32;;
39094;SDS011;24840;47.508;19.376;2022-10-16T18:43:42;16.83;;;11.43;;
39094;SDS011;24840;47.508;19.376;2022-10-16T18:46:10;26.80;;;15.88;;
39094;SDS011;24840;47.508;19.376;2022-10-16T18:48:41;11.35;;;9.05;;
39094;SDS011;24840;47.508;19.376;2022-10-16T18:51:13;12.52;;;8.35;;
39094;SDS011;24840;47.508;19.376;2022-10-16T18:53:49;9.95;;;7.72;;
39094;SDS011;24840;47.508;19.376;2022-10-16T18:56:18;14.57;;;10.00;;
39094;SDS011;24840;47.508;19.376;2022-10-16T18:58:46;12.63;;;9.90;;
39094;SDS011;24840;47.508;19.376;2022-10-16T19:01:13;11.75;;;10.50;;
39094;SDS011;24840;47.508;19.376;2022-10-16T19:03:41;10.10;;;8.40;;
39094;SDS011;24840;47.508;19.376;2022-10-16T19:06:08;14.70;;;8.50;;
39094;SDS011;24840;47.508;19.376;2022-10-16T19:08:36;18.92;;;8.05;;
39094;SDS011;24840;47.508;19.376;2022-10-16T19:11:06;12.27;;;8.40;;
39094;SDS011;24840;47.508;19.376;2022-10-16T19:13:37;10.85;;;7.78;;
39094;SDS011;24840;47.508;19.376;2022-10-16T19:16:08;11.95;;;8.45;;
39094;SDS011;24840;47.508;19.376;2022-10-16T19:18:36;12.80;;;8.68;;
39094;SDS011;24840;47.508;19.376;2022-10-16T19:21:03;9.18;;;7.18;;
39094;SDS011;24840;47.508;19.376;2022-10-16T19:23:31;11.77;;;8.75;;
39094;SDS011;24840;47.508;19.376;2022-10-16T19:26:05;16.15;;;10.68;;
39094;SDS011;24840;47.508;19.376;2022-10-16T19:28:33;13.40;;;9.82;;
39094;SDS011;24840;47.508;19.376;2022-10-16T19:31:00;15.52;;;11.38;;
39094;SDS011;24840;47.508;19.376;2022-10-16T19:33:29;16.70;;;12.57;;
39094;SDS011;24840;47.508;19.376;2022-10-16T19:36:05;21.95;;;13.73;;
39094;SDS011;24840;47.508;19.376;2022-10-16T19:38:32;17.65;;;13.02;;
39094;SDS011;24840;47.508;19.376;2022-10-16T19:41:10;17.38;;;11.65;;
39094;SDS011;24840;47.508;19.376;2022-10-16T19:43:41;18.75;;;14.48;;
39094;SDS011;24840;47.508;19.376;2022-10-16T19:46:11;21.90;;;14.88;;
39094;SDS011;24840;47.508;19.376;2022-10-16T19:51:06;20.98;;;13.10;;
39094;SDS011;24840;47.508;19.376;2022-10-16T19:53:36;22.60;;;16.42;;
39094;SDS011;24840;47.508;19.376;2022-10-16T19:56:06;18.80;;;15.40;;
39094;SDS011;24840;47.508;19.376;2022-10-16T19:58:44;23.37;;;16.87;;
39094;SDS011;24840;47.508;19.376;2022-10-16T20:01:11;17.83;;;14.05;;
39094;SDS011;24840;47.508;19.376;2022-10-16T20:03:39;19.08;;;13.48;;
39094;SDS011;24840;47.508;19.376;2022-10-16T20:06:07;16.95;;;12.48;;
39094;SDS011;24840;47.508;19.376;2022-10-16T20:08:34;16.80;;;12.73;;
39094;SDS011;24840;47.508;19.376;2022-10-16T20:11:03;19.15;;;14.15;;
39094;SDS011;24840;47.508;19.376;2022-10-16T20:13:30;21.05;;;15.55;;
39094;SDS011;24840;47.508;19.376;2022-10-16T20:15:57;21.88;;;16.48;;
39094;SDS011;24840;47.508;19.376;2022-10-16T20:18:23;20.27;;;15.02;;
39094;SDS011;24840;47.508;19.376;2022-10-16T20:20:50;20.20;;;15.45;;
39094;SDS011;24840;47.508;19.376;2022-10-16T20:23:17;18.00;;;15.52;;
39094;SDS011;24840;47.508;19.376;2022-10-16T20:25:44;19.55;;;16.23;;
39094;SDS011;24840;47.508;19.376;2022-10-16T20:28:12;20.80;;;16.20;;
39094;SDS011;24840;47.508;19.376;2022-10-16T20:30:42;21.55;;;16.40;;
39094;SDS011;24840;47.508;19.376;2022-10-16T20:33:10;20.13;;;14.57;;
39094;SDS011;24840;47.508;19.376;2022-10-16T20:35:37;17.73;;;15.05;;
39094;SDS011;24840;47.508;19.376;2022-10-16T20:38:06;19.65;;;14.13;;
39094;SDS011;24840;47.508;19.376;2022-10-16T20:40:33;16.20;;;13.80;;
39094;SDS011;24840;47.508;19.376;2022-10-16T20:43:01;20.83;;;14.98;;
39094;SDS011;24840;47.508;19.376;2022-10-16T20:45:28;18.85;;;14.65;;
39094;SDS011;24840;47.508;19.376;2022-10-16T20:47:55;18.98;;;15.02;;
39094;SDS011;24840;47.508;19.376;2022-10-16T20:50:23;22.90;;;15.57;;
39094;SDS011;24840;47.508;19.376;2022-10-16T20:52:54;21.40;;;13.93;;
39094;SDS011;24840;47.508;19.376;2022-10-16T20:55:22;14.90;;;11.68;;
39094;SDS011;24840;47.508;19.376;2022-10-16T20:57:49;17.67;;;13.48;;
39094;SDS011;24840;47.508;19.376;2022-10-16T21:00:15;20.15;;;13.23;;
39094;SDS011;24840;47.508;19.376;2022-10-16T21:02:42;18.92;;;11.95;;
39094;SDS011;24840;47.508;19.376;2022-10-16T21:05:12;15.95;;;11.63;;
39094;SDS011;24840;47.508;19.376;2022-10-16T21:07:47;12.05;;;9.63;;
39094;SDS011;24840;47.508;19.376;2022-10-16T21:10:15;12.73;;;9.55;;
39094;SDS011;24840;47.508;19.376;2022-10-16T21:12:43;14.60;;;10.63;;
39094;SDS011;24840;47.508;19.376;2022-10-16T21:15:09;14.80;;;10.77;;
39094;SDS011;24840;47.508;19.376;2022-10-16T21:17:37;13.52;;;10.75;;
39094;SDS011;24840;47.508;19.376;2022-10-16T21:20:03;16.88;;;11.65;;
39094;SDS011;24840;47.508;19.376;2022-10-16T21:22:30;17.52;;;11.30;;
39094;SDS011;24840;47.508;19.376;2022-10-16T21:24:56;16.80;;;10.57;;
39094;SDS011;24840;47.508;19.376;2022-10-16T21:27:22;19.48;;;11.63;;
39094;SDS011;24840;47.508;19.376;2022-10-16T21:29:48;12.60;;;9.82;;
39094;SDS011;24840;47.508;19.376;2022-10-16T21:32:16;17.77;;;10.93;;